NKS420 TTCP-TTPP
Flight info
| Callsign | NKS420 |
|---|---|
| Flight time | 0h 27m |
| Altitude | 12000 |
| Route | NAPKO DCT LEXOR DCT TALUS |
| Aircraft | A320/M-SDE3FGHIRWY/LB1 |
Departure
| Time | 2026-04-23 22:31 |
|---|---|
| Airport | A.N.R. Robinson International Airport (TTCP) |
Arrival
| Time | 2026-04-23 22:59 |
|---|---|
| Airport | Piarco International Airport (TTPP) |
| Time | Latitude | Longitude | Altitude | Speed | Heading |
|---|---|---|---|---|---|
| 2026-04-23 22:18 | 11.15192 | -60.83948 | 42 ft | 0 kts | 4° |
| 2026-04-23 22:26 | 11.15177 | -60.83949 | 40 ft | 3 kts | 4° |
| 2026-04-23 22:26 | 11.15160 | -60.83950 | 36 ft | 3 kts | 4° |
| 2026-04-23 22:27 | 11.15142 | -60.83952 | 37 ft | 2 kts | 4° |
| 2026-04-23 22:27 | 11.15125 | -60.83952 | 39 ft | 3 kts | 343° |
| 2026-04-23 22:27 | 11.15111 | -60.83946 | 37 ft | 0 kts | 312° |
| 2026-04-23 22:28 | 11.15112 | -60.83948 | 37 ft | 1 kts | 305° |
| 2026-04-23 22:28 | 11.15118 | -60.83957 | 37 ft | 3 kts | 303° |
| 2026-04-23 22:29 | 11.15123 | -60.83998 | 41 ft | 8 kts | 271° |
| 2026-04-23 22:29 | 11.15124 | -60.84038 | 41 ft | 9 kts | 271° |
| 2026-04-23 22:29 | 11.15122 | -60.84106 | 41 ft | 7 kts | 258° |
| 2026-04-23 22:29 | 11.15091 | -60.84141 | 41 ft | 6 kts | 206° |
| 2026-04-23 22:30 | 11.15046 | -60.84136 | 41 ft | 7 kts | 158° |
| 2026-04-23 22:30 | 11.15036 | -60.84096 | 40 ft | 4 kts | 88° |
| 2026-04-23 22:30 | 11.15036 | -60.84095 | 41 ft | 0 kts | 88° |
| 2026-04-23 22:30 | 11.15029 | -60.84012 | 41 ft | 41 kts | 95° |
| 2026-04-23 22:31 | 11.14987 | -60.83472 | 44 ft | 108 kts | 94° |
| 2026-04-23 22:31 | 11.14919 | -60.82533 | 46 ft | 156 kts | 94° |
| 2026-04-23 22:31 | 11.14804 | -60.81390 | 521 ft | 159 kts | 97° |
| 2026-04-23 22:31 | 11.14578 | -60.80318 | 1283 ft | 151 kts | 104° |
| 2026-04-23 22:32 | 11.14201 | -60.79340 | 1976 ft | 147 kts | 114° |
| 2026-04-23 22:32 | 11.13823 | -60.78700 | 2152 ft | 147 kts | 128° |
| 2026-04-23 22:32 | 11.12939 | -60.78144 | 2542 ft | 158 kts | 167° |
| 2026-04-23 22:32 | 11.11832 | -60.78308 | 2546 ft | 184 kts | 208° |
| 2026-04-23 22:33 | 11.10744 | -60.79239 | 2956 ft | 224 kts | 220° |
| 2026-04-23 22:33 | 11.09327 | -60.80138 | 3341 ft | 265 kts | 206° |
| 2026-04-23 22:33 | 11.07757 | -60.81362 | 3716 ft | 305 kts | 229° |
| 2026-04-23 22:33 | 11.06575 | -60.83242 | 4079 ft | 312 kts | 243° |
| 2026-04-23 22:34 | 11.05732 | -60.85158 | 4446 ft | 280 kts | 247° |
| 2026-04-23 22:34 | 11.05017 | -60.86950 | 4885 ft | 273 kts | 247° |
| 2026-04-23 22:34 | 11.04263 | -60.88732 | 5321 ft | 275 kts | 245° |
| 2026-04-23 22:34 | 11.03442 | -60.90502 | 5755 ft | 276 kts | 243° |
| 2026-04-23 22:35 | 11.02568 | -60.92244 | 6207 ft | 277 kts | 242° |
| 2026-04-23 22:35 | 11.01654 | -60.93977 | 6641 ft | 278 kts | 241° |
| 2026-04-23 22:35 | 11.00719 | -60.95704 | 7055 ft | 279 kts | 240° |
| 2026-04-23 22:35 | 10.99771 | -60.97432 | 7486 ft | 280 kts | 240° |
| 2026-04-23 22:36 | 10.98828 | -60.99143 | 7893 ft | 282 kts | 240° |
| 2026-04-23 22:36 | 10.97866 | -61.00887 | 8001 ft | 282 kts | 240° |
| 2026-04-23 22:36 | 10.96909 | -61.02623 | 8019 ft | 281 kts | 240° |
| 2026-04-23 22:36 | 10.95952 | -61.04357 | 8019 ft | 281 kts | 240° |
| 2026-04-23 22:37 | 10.94994 | -61.06095 | 8024 ft | 281 kts | 240° |
| 2026-04-23 22:37 | 10.94040 | -61.07831 | 8020 ft | 281 kts | 241° |
| 2026-04-23 22:37 | 10.93086 | -61.09567 | 8020 ft | 281 kts | 241° |
| 2026-04-23 22:37 | 10.92135 | -61.11300 | 8022 ft | 281 kts | 241° |
| 2026-04-23 22:38 | 10.91181 | -61.13039 | 8019 ft | 281 kts | 241° |
| 2026-04-23 22:38 | 10.90226 | -61.14773 | 8019 ft | 281 kts | 240° |
| 2026-04-23 22:38 | 10.89271 | -61.16507 | 8017 ft | 281 kts | 240° |
| 2026-04-23 22:38 | 10.88315 | -61.18239 | 8014 ft | 281 kts | 240° |
| 2026-04-23 22:39 | 10.87372 | -61.19949 | 8014 ft | 281 kts | 240° |
| 2026-04-23 22:39 | 10.86415 | -61.21686 | 8012 ft | 281 kts | 240° |
| 2026-04-23 22:39 | 10.85459 | -61.23419 | 8014 ft | 281 kts | 240° |
| 2026-04-23 22:39 | 10.84503 | -61.25151 | 8011 ft | 281 kts | 240° |
| 2026-04-23 22:40 | 10.83545 | -61.26885 | 8008 ft | 281 kts | 240° |
| 2026-04-23 22:40 | 10.82586 | -61.28621 | 8009 ft | 281 kts | 240° |
| 2026-04-23 22:40 | 10.80663 | -61.32104 | 7578 ft | 283 kts | 240° |
| 2026-04-23 22:41 | 10.79699 | -61.33848 | 7247 ft | 283 kts | 240° |
| 2026-04-23 22:41 | 10.78735 | -61.35593 | 6909 ft | 282 kts | 240° |
| 2026-04-23 22:41 | 10.77774 | -61.37331 | 6587 ft | 282 kts | 240° |
| 2026-04-23 22:41 | 10.76812 | -61.39075 | 6252 ft | 282 kts | 240° |
| 2026-04-23 22:42 | 10.75852 | -61.40814 | 5906 ft | 280 kts | 240° |
| 2026-04-23 22:42 | 10.74915 | -61.42512 | 5563 ft | 270 kts | 239° |
| 2026-04-23 22:42 | 10.74014 | -61.44146 | 5216 ft | 260 kts | 240° |
| 2026-04-23 22:42 | 10.73137 | -61.45735 | 4888 ft | 257 kts | 240° |
| 2026-04-23 22:43 | 10.72166 | -61.47272 | 4538 ft | 259 kts | 232° |
| 2026-04-23 22:43 | 10.70981 | -61.48649 | 4213 ft | 259 kts | 223° |
| 2026-04-23 22:43 | 10.69619 | -61.49824 | 3952 ft | 255 kts | 215° |
| 2026-04-23 22:43 | 10.68126 | -61.50779 | 3651 ft | 252 kts | 206° |
| 2026-04-23 22:44 | 10.66534 | -61.51505 | 3339 ft | 250 kts | 198° |
| 2026-04-23 22:44 | 10.64876 | -61.51992 | 3025 ft | 246 kts | 189° |
| 2026-04-23 22:44 | 10.63213 | -61.52235 | 2746 ft | 241 kts | 182° |
| 2026-04-23 22:44 | 10.61575 | -61.52229 | 2504 ft | 228 kts | 168° |
| 2026-04-23 22:45 | 10.60241 | -61.51539 | 2485 ft | 212 kts | 133° |
| 2026-04-23 22:45 | 10.59541 | -61.50272 | 2497 ft | 205 kts | 101° |
| 2026-04-23 22:45 | 10.59575 | -61.48886 | 2495 ft | 186 kts | 82° |
| 2026-04-23 22:45 | 10.59652 | -61.47651 | 2497 ft | 165 kts | 89° |
| 2026-04-23 22:46 | 10.59624 | -61.46522 | 2439 ft | 154 kts | 91° |
| 2026-04-23 22:46 | 10.59536 | -61.45472 | 2235 ft | 150 kts | 96° |
| 2026-04-23 22:46 | 10.59417 | -61.44426 | 1966 ft | 149 kts | 94° |
| 2026-04-23 22:46 | 10.59369 | -61.43380 | 1746 ft | 147 kts | 89° |
| 2026-04-23 22:47 | 10.59435 | -61.42342 | 1474 ft | 146 kts | 81° |
| 2026-04-23 22:47 | 10.59509 | -61.41353 | 1216 ft | 138 kts | 86° |
| 2026-04-23 22:47 | 10.59505 | -61.40372 | 928 ft | 136 kts | 90° |
| 2026-04-23 22:47 | 10.59517 | -61.39413 | 659 ft | 137 kts | 88° |
| 2026-04-23 22:48 | 10.59525 | -61.38447 | 541 ft | 135 kts | 91° |
| 2026-04-23 22:48 | 10.59544 | -61.37514 | 466 ft | 128 kts | 94° |
| 2026-04-23 22:48 | 10.59530 | -61.36627 | 271 ft | 129 kts | 90° |
| 2026-04-23 22:48 | 10.59538 | -61.35737 | 146 ft | 124 kts | 90° |
| 2026-04-23 22:49 | 10.59543 | -61.34857 | 48 ft | 127 kts | 91° |
| 2026-04-23 22:49 | 10.59574 | -61.33909 | 501 ft | 141 kts | 90° |
| 2026-04-23 22:49 | 10.59608 | -61.32859 | 1077 ft | 165 kts | 88° |
| 2026-04-23 22:49 | 10.59655 | -61.31582 | 1399 ft | 193 kts | 86° |
| 2026-04-23 22:50 | 10.59681 | -61.30125 | 1603 ft | 225 kts | 97° |
| 2026-04-23 22:50 | 10.58983 | -61.28700 | 1609 ft | 225 kts | 139° |
| 2026-04-23 22:50 | 10.57598 | -61.28066 | 2081 ft | 226 kts | 166° |
| 2026-04-23 22:50 | 10.56014 | -61.28084 | 2596 ft | 234 kts | 191° |
| 2026-04-23 22:51 | 10.54546 | -61.28845 | 2952 ft | 244 kts | 221° |
| 2026-04-23 22:51 | 10.53664 | -61.30289 | 3003 ft | 242 kts | 255° |
| 2026-04-23 22:51 | 10.53332 | -61.31973 | 3005 ft | 243 kts | 259° |
| 2026-04-23 22:51 | 10.53020 | -61.33656 | 3004 ft | 243 kts | 260° |
| 2026-04-23 22:52 | 10.52701 | -61.35341 | 3011 ft | 243 kts | 259° |
| 2026-04-23 22:52 | 10.52379 | -61.37023 | 3006 ft | 242 kts | 259° |
| 2026-04-23 22:52 | 10.52054 | -61.38710 | 3007 ft | 243 kts | 259° |
| 2026-04-23 22:52 | 10.51734 | -61.40360 | 3031 ft | 231 kts | 259° |
| 2026-04-23 22:53 | 10.51428 | -61.41939 | 3011 ft | 226 kts | 259° |
| 2026-04-23 22:53 | 10.51130 | -61.43475 | 3000 ft | 223 kts | 259° |
| 2026-04-23 22:53 | 10.50828 | -61.45024 | 3001 ft | 223 kts | 259° |
| 2026-04-23 22:53 | 10.50748 | -61.46566 | 2991 ft | 214 kts | 282° |
| 2026-04-23 22:54 | 10.51317 | -61.47921 | 2997 ft | 207 kts | 309° |
| 2026-04-23 22:54 | 10.52394 | -61.48837 | 3002 ft | 197 kts | 337° |
| 2026-04-23 22:54 | 10.53696 | -61.49166 | 3013 ft | 201 kts | 1° |
| 2026-04-23 22:54 | 10.55077 | -61.48875 | 3006 ft | 206 kts | 28° |
| 2026-04-23 22:55 | 10.56167 | -61.47998 | 3007 ft | 197 kts | 52° |
| 2026-04-23 22:55 | 10.57011 | -61.46920 | 2905 ft | 195 kts | 53° |
| 2026-04-23 22:55 | 10.57843 | -61.45876 | 2685 ft | 183 kts | 53° |
| 2026-04-23 22:55 | 10.58602 | -61.44930 | 2479 ft | 165 kts | 53° |
| 2026-04-23 22:56 | 10.59296 | -61.44043 | 2196 ft | 156 kts | 57° |
| 2026-04-23 22:56 | 10.59608 | -61.43053 | 1947 ft | 146 kts | 88° |
| 2026-04-23 22:56 | 10.59477 | -61.42024 | 1500 ft | 145 kts | 95° |
| 2026-04-23 22:56 | 10.59418 | -61.41031 | 1109 ft | 142 kts | 82° |
| 2026-04-23 22:57 | 10.59589 | -61.40054 | 832 ft | 140 kts | 90° |
| 2026-04-23 22:57 | 10.59508 | -61.39060 | 680 ft | 141 kts | 92° |
| 2026-04-23 22:57 | 10.59515 | -61.38064 | 577 ft | 143 kts | 89° |
| 2026-04-23 22:57 | 10.59516 | -61.37048 | 420 ft | 141 kts | 91° |
| 2026-04-23 22:58 | 10.59544 | -61.36081 | 201 ft | 132 kts | 90° |
| 2026-04-23 22:58 | 10.59535 | -61.35169 | 66 ft | 129 kts | 91° |
| 2026-04-23 22:58 | 10.59526 | -61.34336 | 17 ft | 99 kts | 93° |
| 2026-04-23 22:58 | 10.59535 | -61.33811 | 17 ft | 50 kts | 85° |
| 2026-04-23 22:59 | 10.59558 | -61.33589 | 16 ft | 26 kts | 73° |
| 2026-04-23 22:59 | 10.59601 | -61.33488 | 17 ft | 2 kts | 57° |
| 2026-04-23 22:59 | 10.59616 | -61.33474 | 18 ft | 4 kts | 46° |
| 2026-04-23 22:59 | 10.59656 | -61.33448 | 17 ft | 11 kts | 20° |
| 2026-04-23 23:00 | 10.59701 | -61.33503 | 17 ft | 12 kts | 285° |
| 2026-04-23 23:00 | 10.59710 | -61.33596 | 17 ft | 14 kts | 270° |
| 2026-04-23 23:00 | 10.59710 | -61.33665 | 17 ft | 9 kts | 271° |
| 2026-04-23 23:00 | 10.59729 | -61.33729 | 18 ft | 10 kts | 313° |
| 2026-04-23 23:01 | 10.59800 | -61.33733 | 18 ft | 12 kts | 17° |
| 2026-04-23 23:01 | 10.59887 | -61.33711 | 17 ft | 13 kts | 357° |
| 2026-04-23 23:01 | 10.59971 | -61.33744 | 17 ft | 14 kts | 5° |
| 2026-04-23 23:01 | 10.60075 | -61.33748 | 17 ft | 15 kts | 329° |
| 2026-04-23 23:02 | 10.60100 | -61.33822 | 18 ft | 10 kts | 222° |
| 2026-04-23 23:02 | 10.60071 | -61.33864 | 18 ft | 0 kts | 240° |